Time;durP1;ratioP1;P1;durP2;ratioP2;P2;SDS_P1;SDS_P2;PMS_P1;PMS_P2;Temp;Humidity;BMP_temperature;BMP_pressure;BME280_temperature;BME280_humidity;BME280_pressure;Samples;Min_cycle;Max_cycle;Signal;HPM_P1;HPM_P2
2022/09/25 00:01:20;;;;;;;10.75;3.10;;;;;;;;;;5073984;28;20082;-62
2022/09/25 00:03:46;;;;;;;7.97;3.55;;;;;;;;;;5071187;28;20650;-61
2022/09/25 00:06:14;;;;;;;11.60;3.20;;;;;;;;;;5047078;28;20048;-62
2022/09/25 00:08:40;;;;;;;8.50;3.35;;;;;;;;;;5072840;28;20044;-62
2022/09/25 00:11:07;;;;;;;10.40;2.60;;;;;;;;;;5073438;28;20036;-62
2022/09/25 00:13:34;;;;;;;6.15;2.53;;;;;;;;;;5073530;28;20047;-62
2022/09/25 00:16:01;;;;;;;6.32;2.42;;;;;;;;;;5071834;28;20052;-62
2022/09/25 00:23:48;;;;;;;4.53;2.50;;;;;;;;;;5063431;22;20072;-62
2022/09/25 00:26:15;;;;;;;6.05;2.55;;;;;;;;;;5036586;28;20789;-62
2022/09/25 00:28:42;;;;;;;10.13;2.65;;;;;;;;;;5016970;28;20057;-61
2022/09/25 00:31:09;;;;;;;7.53;2.22;;;;;;;;;;5034540;28;20052;-61
2022/09/25 00:33:35;;;;;;;7.03;2.13;;;;;;;;;;5016748;28;20387;-61
2022/09/25 00:36:06;;;;;;;4.65;2.13;;;;;;;;;;5034541;28;20045;-61
2022/09/25 00:38:32;;;;;;;5.15;2.35;;;;;;;;;;5015975;28;20045;-62
2022/09/25 00:43:36;;;;;;;12.93;2.97;;;;;;;;;;5086764;22;20113;-62
2022/09/25 00:46:04;;;;;;;3.58;2.20;;;;;;;;;;5088064;22;20060;-61
2022/09/25 00:48:30;;;;;;;6.00;2.60;;;;;;;;;;5072943;28;20048;-61
2022/09/25 00:50:58;;;;;;;10.02;3.17;;;;;;;;;;5073942;28;20441;-61
2022/09/25 00:53:26;;;;;;;6.55;2.70;;;;;;;;;;5053922;28;20066;-61
2022/09/25 00:55:53;;;;;;;6.68;2.75;;;;;;;;;;5071910;28;20437;-61
2022/09/25 00:58:21;;;;;;;6.90;2.25;;;;;;;;;;5073845;28;20049;-61
2022/09/25 01:00:47;;;;;;;10.27;2.65;;;;;;;;;;5073028;28;20152;-61
2022/09/25 01:03:13;;;;;;;6.20;2.70;;;;;;;;;;5072949;28;20040;-61
2022/09/25 01:05:41;;;;;;;4.70;2.00;;;;;;;;;;5072797;28;20417;-61
2022/09/25 01:08:09;;;;;;;11.75;3.70;;;;;;;;;;5055632;28;20048;-62
2022/09/25 01:10:36;;;;;;;9.38;3.30;;;;;;;;;;5072638;28;20111;-61
2022/09/25 01:13:02;;;;;;;10.35;3.45;;;;;;;;;;5073135;28;20036;-61
2022/09/25 01:15:43;;;;;;;8.98;5.22;;;;;;;;;;5055095;28;20052;-63
2022/09/25 01:18:14;;;;;;;43.70;23.05;;;;;;;;;;5054026;28;20066;-61
2022/09/25 01:20:50;;;;;;;33.13;21.75;;;;;;;;;;5072798;28;20040;-61
2022/09/25 01:23:53;;;;;;;39.53;26.08;;;8.50;99.90;;;;;;5055057;28;20041;-61
2022/09/25 01:26:30;;;;;;;43.55;27.20;;;;;;;;;;5072398;28;20052;-61
2022/09/25 01:28:56;;;;;;;36.03;23.55;;;;;;;;;;5072679;28;20047;-61
2022/09/25 01:31:34;;;;;;;38.03;23.25;;;;;;;;;;5055632;28;20095;-61
2022/09/25 01:34:14;;;;;;;36.85;23.98;;;;;;;;;;5051695;28;20515;-61
2022/09/25 01:37:06;;;;;;;43.55;26.65;;;;;;;;;;5052420;28;20540;-61
2022/09/25 01:39:39;;;;;;;39.10;26.88;;;;;;;;;;5069616;28;20064;-62
2022/09/25 01:42:08;;;;;;;47.28;28.40;;;;;;;;;;5072742;28;20079;-61
2022/09/25 01:44:37;;;;;;;43.60;26.42;;;;;;;;;;5071761;28;20102;-61
2022/09/25 01:47:07;;;;;;;36.08;23.08;;;;;;;;;;5072398;28;20067;-62
2022/09/25 01:49:36;;;;;;;36.30;20.98;;;;;;;;;;5072189;28;20045;-61
2022/09/25 01:52:04;;;;;;;29.02;18.65;;;;;;;;;;5054391;28;20047;-61
2022/09/25 01:54:34;;;;;;;27.10;17.83;;;;;;;;;;5053506;28;20106;-62
2022/09/25 01:57:06;;;;;;;23.55;16.60;;;;;;;;;;5053600;28;20520;-61
2022/09/25 01:59:39;;;;;;;28.42;15.48;;;;;;;;;;5053666;28;20055;-61
2022/09/25 02:02:06;;;;;;;28.05;14.45;;;;;;;;;;5071183;28;20392;-61
2022/09/25 02:04:35;;;;;;;21.17;12.82;;;;;;;;;;5055187;28;20040;-62
2022/09/25 02:07:07;;;;;;;22.73;12.32;;;;;;;;;;5072195;28;20378;-61
2022/09/25 02:09:40;;;;;;;19.75;11.85;;;;;;;;;;5054215;28;20507;-61
2022/09/25 02:12:08;;;;;;;21.67;11.32;;;;;;;;;;5071730;28;20068;-61
2022/09/25 02:14:38;;;;;;;15.50;8.57;;;;;;;;;;5071797;28;20119;-62
2022/09/25 02:17:06;;;;;;;17.50;9.55;;;;;;;;;;5071543;28;20553;-61
2022/09/25 02:22:21;;;;;;;13.43;7.20;;;;;;;;;;5071992;28;20044;-61
2022/09/25 02:24:57;;;;;;;12.95;6.65;;;;;;;;;;5070439;28;20059;-61
2022/09/25 02:27:24;;;;;;;11.23;5.65;;;;;;;;;;5070755;28;20048;-61
2022/09/25 02:29:51;;;;;;;11.00;5.05;;;;;;;;;;5037695;28;20070;-61
2022/09/25 02:32:22;;;;;;;9.63;5.20;;;;;;;;;;5071904;28;20040;-60
2022/09/25 02:34:48;;;;;;;12.77;4.53;;;;;;;;;;5052765;28;20174;-61
2022/09/25 02:37:15;;;;;;;9.25;5.22;;;;;;;;;;5072338;28;20169;-61
2022/09/25 02:39:42;;;;;;;10.55;4.85;;;;;;;;;;5052955;28;20574;-61
2022/09/25 02:42:17;;;;;;;12.30;4.22;;;;;;;;;;5075851;28;20048;-61
2022/09/25 02:45:11;;;;;;;8.50;3.65;;;8.90;99.90;;;;;;5074822;28;20041;-61
2022/09/25 02:47:55;;;;;;;9.90;4.20;;;;;;;;;;5075136;28;20174;-61
2022/09/25 02:50:41;;;;;;;9.93;3.42;;;;;;;;;;5075487;28;20044;-60
2022/09/25 02:53:12;;;;;;;10.32;3.38;;;;;;;;;;5037096;28;20083;-61
2022/09/25 02:55:38;;;;;;;7.80;3.53;;;;;;;;;;5057086;28;20044;-61
2022/09/25 02:58:11;;;;;;;6.53;3.50;;;;;;;;;;5075791;28;20385;-61
2022/09/25 03:00:38;;;;;;;6.80;3.10;;;;;;;;;;5074665;28;20101;-60
2022/09/25 03:03:06;;;;;;;7.28;3.38;;;;;;;;;;5075716;28;20050;-60
2022/09/25 03:05:32;;;;;;;9.45;2.97;;;;;;;;;;5074579;28;20179;-60
2022/09/25 03:10:45;;;;;;;12.68;4.63;;;;;;;;;;5074128;28;20052;-59
2022/09/25 03:13:15;;;;;;;8.30;2.70;;;;;;;;;;5075665;28;20055;-60
2022/09/25 03:15:44;;;;;;;7.93;3.20;;;;;;;;;;5068667;28;20045;-61
2022/09/25 03:18:11;;;;;;;10.82;3.38;;;;;;;;;;5075256;28;20050;-60
2022/09/25 03:20:37;;;;;;;7.88;3.28;;;;;;;;;;5075178;28;20169;-60
2022/09/25 03:23:03;;;;;;;5.80;3.17;;;;;;;;;;5074814;28;20036;-60
2022/09/25 03:25:29;;;;;;;11.25;3.83;;;;;;;;;;5073824;28;20071;-60
2022/09/25 03:27:55;;;;;;;15.95;4.78;;;;;;;;;;5075289;28;20044;-60
2022/09/25 03:30:21;;;;;;;10.45;6.50;;;;;;;;;;5075281;28;20041;-60
2022/09/25 03:32:47;;;;;;;12.93;4.63;;;;;;;;;;5056521;28;20930;-60
2022/09/25 03:35:13;;;;;;;9.50;4.40;;;;;;;;;;5074589;28;20075;-60
2022/09/25 03:37:39;;;;;;;9.55;3.92;;;;;;;;;;5073559;28;20045;-60
2022/09/25 03:40:05;;;;;;;9.40;3.47;;;;;;;;;;5075139;28;20399;-60
2022/09/25 03:42:31;;;;;;;10.45;5.38;;;;;;;;;;5074418;28;20050;-61
2022/09/25 03:44:57;;;;;;;8.32;3.92;;;;;;;;;;5056400;28;20040;-61
2022/09/25 03:47:23;;;;;;;9.73;3.92;;;;;;;;;;5074505;28;20044;-60
2022/09/25 03:49:49;;;;;;;6.97;3.33;;;;;;;;;;5074649;28;20094;-61
2022/09/25 03:52:16;;;;;;;7.43;3.03;;;;;;;;;;5055956;28;20050;-60
2022/09/25 03:54:42;;;;;;;8.40;3.00;;;;;;;;;;5073794;28;20123;-60
2022/09/25 03:57:11;;;;;;;10.48;3.30;;;;;;;;;;5074668;28;20114;-60
2022/09/25 03:59:37;;;;;;;5.93;2.72;;;;;;;;;;5073656;28;20102;-60
2022/09/25 04:02:03;;;;;;;8.98;3.28;;;;;;;;;;5074353;28;20036;-59
2022/09/25 04:04:29;;;;;;;11.00;3.72;;;;;;;;;;5088862;22;20505;-60
2022/09/25 04:10:06;;;;;;;7.50;2.90;;;;;;;;;;5063189;22;20055;-60
2022/09/25 04:12:32;;;;;;;7.40;3.03;;;;;;;;;;5074239;28;20055;-61
2022/09/25 04:14:58;;;;;;;7.15;2.70;;;;;;;;;;5072794;28;20072;-61
2022/09/25 04:17:24;;;;;;;12.95;2.55;;;;;;;;;;5054121;28;20045;-60
2022/09/25 04:19:51;;;;;;;10.15;3.70;;;;;;;;;;5073275;28;20044;-61
2022/09/25 04:22:17;;;;;;;8.40;1.95;;;;;;;;;;5070889;22;20166;-61
2022/09/25 04:24:49;;;;;;;6.47;1.90;;;;;;;;;;5071804;22;20057;-61
2022/09/25 04:27:41;;;;;;;5.85;2.13;;;;;;;;;;5119301;22;20508;-60
2022/09/25 04:30:07;;;;;;;6.20;1.50;;;;;;;;;;5015502;28;20053;-60
2022/09/25 04:35:18;;;;;;;7.93;1.70;;;;;;;;;;5019637;28;20069;-61
2022/09/25 04:37:44;;;;;;;3.13;1.20;;;;;;;;;;5033856;28;20053;-61
2022/09/25 04:40:10;;;;;;;11.05;1.52;;;;;;;;;;5034319;28;20076;-61
2022/09/25 04:42:37;;;;;;;5.80;2.38;;;;;;;;;;5031432;28;20046;-61
2022/09/25 04:45:03;;;;;;;10.70;1.60;;;;;;;;;;5031994;28;20048;-62
2022/09/25 04:47:29;;;;;;;4.25;1.67;;;;;;;;;;5015041;28;20045;-61
2022/09/25 04:49:55;;;;;;;4.45;1.50;;;;;;;;;;5034064;28;20548;-60
2022/09/25 04:52:21;;;;;;;6.93;2.30;;;;;;;;;;5033152;28;20548;-60
2022/09/25 04:54:47;;;;;;;4.50;1.80;;;;;;;;;;5033169;28;20049;-60
2022/09/25 04:57:17;;;;;;;4.50;1.52;;;;;;;;;;5027673;28;20495;-61
2022/09/25 04:59:43;;;;;;;6.35;1.60;;;;;;;;;;5032347;28;20037;-61
2022/09/25 05:02:10;;;;;;;3.40;1.52;;;;;;;;;;5011885;28;20045;-61
2022/09/25 05:04:36;;;;;;;5.78;1.38;;;;;;;;;;5021218;28;20049;-61
2022/09/25 05:07:02;;;;;;;3.85;1.50;;;;;;;;;;5033635;28;20044;-60
2022/09/25 05:09:28;;;;;;;3.92;1.67;;;;;;;;;;5032794;28;20053;-62
2022/09/25 05:11:54;;;;;;;6.25;2.35;;;;;;;;;;5032846;28;20076;-61
2022/09/25 05:14:20;;;;;;;5.53;1.73;;;;;;;;;;5032846;28;20072;-60
2022/09/25 05:16:46;;;;;;;8.95;1.90;;;;;;;;;;5033089;28;20053;-61
2022/09/25 05:19:13;;;;;;;5.40;1.85;;;;;;;;;;5023672;28;20123;-60
2022/09/25 05:21:39;;;;;;;4.88;1.98;;;;;;;;;;5019288;28;20045;-60
2022/09/25 05:24:07;;;;;;;7.28;1.77;;;;;;;;;;5015194;28;20091;-61
2022/09/25 05:26:33;;;;;;;6.55;2.63;;;;;;;;;;5031802;28;21453;-60
2022/09/25 05:29:00;;;;;;;6.72;2.00;;;;;;;;;;5032868;28;20136;-61
2022/09/25 05:31:26;;;;;;;7.00;1.83;;;;;;;;;;5031493;28;20164;-62
2022/09/25 05:33:52;;;;;;;4.28;1.75;;;;;;;;;;5028648;28;20048;-61
2022/09/25 05:36:19;;;;;;;5.82;1.85;;;;;;;;;;5033096;28;20136;-61
2022/09/25 05:38:46;;;;;;;5.90;1.48;;;;;;;;;;5032640;28;20042;-61
2022/09/25 05:41:13;;;;;;;5.75;1.35;;;;;;;;;;5032020;28;20045;-61
2022/09/25 05:43:40;;;;;;;6.22;1.35;;;;;;;;;;5012779;28;20120;-60
2022/09/25 05:46:06;;;;;;;7.00;1.65;;;;;;;;;;5014750;28;20092;-60
2022/09/25 05:48:32;;;;;;;5.70;1.20;;;;;;;;;;4996085;28;20053;-61
2022/09/25 05:50:58;;;;;;;4.25;2.30;;;;;;;;;;4998081;28;20077;-60
2022/09/25 05:53:25;;;;;;;9.35;3.45;;;;;;;;;;4998669;28;20053;-60
2022/09/25 05:55:58;;;;;;;6.72;1.67;;;;;;;;;;5032267;28;20050;-60
2022/09/25 05:58:25;;;;;;;4.80;1.42;;;;;;;;;;5029645;28;20057;-60
2022/09/25 06:00:51;;;;;;;6.15;1.70;;;;;;;;;;5028585;28;20481;-60
2022/09/25 06:03:18;;;;;;;8.55;1.67;;;;;;;;;;5031069;28;20042;-60
2022/09/25 06:05:45;;;;;;;5.95;1.70;;;;;;;;;;5015637;28;20049;-59
2022/09/25 06:08:12;;;;;;;4.97;1.80;;;;;;;;;;5006079;28;20144;-60
2022/09/25 06:10:38;;;;;;;6.45;1.77;;;;;;;;;;5028320;28;20521;-59
2022/09/25 06:13:04;;;;;;;4.65;2.05;;;;;;;;;;4998010;28;20037;-60
2022/09/25 06:15:36;;;;;;;4.63;1.67;;;;;;;;;;5029429;28;20049;-60
2022/09/25 06:18:03;;;;;;;3.60;1.75;;;;;;;;;;5012785;28;20445;-60
2022/09/25 06:20:29;;;;;;;5.65;2.08;;;;;;;;;;5028308;28;20050;-61
2022/09/25 06:22:55;;;;;;;5.75;1.95;;;;;;;;;;5029773;28;20060;-61
2022/09/25 06:25:22;;;;;;;7.68;1.67;;;;;;;;;;5020434;28;20073;-61
2022/09/25 06:27:51;;;;;;;8.95;1.77;;;;;;;;;;5025769;28;20041;-61
2022/09/25 06:30:18;;;;;;;6.25;1.63;;;;;;;;;;5026586;28;20437;-60
2022/09/25 06:32:45;;;;;;;9.43;2.75;;;;;;;;;;5026853;28;20056;-61
2022/09/25 06:35:11;;;;;;;3.60;1.70;;;;;;;;;;5031964;28;20053;-59
2022/09/25 06:37:37;;;;;;;5.70;1.95;;;;;;;;;;5015068;28;20046;-60
2022/09/25 06:40:03;;;;;;;6.47;2.10;;;;;;;;;;5027419;28;20049;-60
2022/09/25 06:42:29;;;;;;;5.78;1.65;;;;;;;;;;5027053;28;20073;-61
2022/09/25 06:44:55;;;;;;;5.25;2.13;;;;;;;;;;5031456;28;20068;-60
2022/09/25 06:47:21;;;;;;;8.98;2.08;;;;;;;;;;5025921;28;20100;-60
2022/09/25 06:49:47;;;;;;;9.95;2.47;;;;;;;;;;5015362;28;20418;-62
2022/09/25 06:52:13;;;;;;;7.53;2.80;;;;;;;;;;4996664;28;20474;-60
2022/09/25 06:54:39;;;;;;;14.00;3.58;;;;;;;;;;5017288;28;20085;-62
2022/09/25 06:57:08;;;;;;;11.38;7.70;;;;;;;;;;5019003;28;20104;-62
2022/09/25 06:59:34;;;;;;;14.15;10.20;;;;;;;;;;5026117;28;20056;-62
2022/09/25 07:03:43;;;;;;;16.95;11.38;;;;;;;;;;5020545;28;20038;-62
2022/09/25 07:04:50;;;;;;;17.17;11.43;;;;;;;;;;5030178;28;20049;-63
2022/09/25 07:07:18;;;;;;;15.90;9.75;;;;;;;;;;5032013;28;20046;-63
2022/09/25 07:09:44;;;;;;;11.30;9.52;;;;;;;;;;5027046;28;20494;-63
2022/09/25 07:12:10;;;;;;;14.35;10.60;;;;;;;;;;5027894;28;20033;-64
2022/09/25 07:14:37;;;;;;;12.27;8.77;;;;;;;;;;5028875;28;20505;-63
2022/09/25 07:17:03;;;;;;;15.07;9.38;;;;;;;;;;5005997;28;20038;-62
2022/09/25 07:19:29;;;;;;;18.85;12.63;;;;;;;;;;5026675;28;20107;-63
2022/09/25 07:21:55;;;;;;;27.17;16.42;;;;;;;;;;5021223;28;20046;-63
2022/09/25 07:24:21;;;;;;;33.20;22.65;;;;;;;;;;5012384;28;20042;-63
2022/09/25 07:26:47;;;;;;;30.83;24.67;;;;;;;;;;5018579;28;20064;-62
2022/09/25 07:29:13;;;;;;;34.63;28.77;;;;;;;;;;5017398;28;20045;-63
2022/09/25 07:31:39;;;;;;;26.27;21.30;;;;;;;;;;5016851;28;20049;-63
2022/09/25 07:34:08;;;;;;;24.55;16.15;;;;;;;;;;5034679;28;20482;-63
2022/09/25 07:36:34;;;;;;;17.75;9.88;;;;;;;;;;5032078;28;20053;-63
2022/09/25 07:39:00;;;;;;;11.82;8.27;;;;;;;;;;5021460;28;20087;-63
2022/09/25 07:41:26;;;;;;;7.88;4.65;;;;;;;;;;5184646;22;20053;-63
2022/09/25 07:43:55;;;;;;;6.68;3.63;;;;;;;;;;5076660;22;20202;-63
2022/09/25 07:46:22;;;;;;;4.43;2.83;;;;;;;;;;5052940;28;20049;-63
2022/09/25 07:48:48;;;;;;;5.85;3.58;;;;;;;;;;5054052;28;20103;-63
2022/09/25 07:51:15;;;;;;;6.53;3.72;;;;;;;;;;5055036;28;20037;-62
2022/09/25 07:53:42;;;;;;;4.72;3.03;;;;;;;;;;5053590;28;20384;-63
2022/09/25 07:56:09;;;;;;;5.60;2.55;;;;;;;;;;5055366;28;20045;-63
2022/09/25 07:58:35;;;;;;;5.07;2.20;;;;;;;;;;5055416;28;20084;-63
2022/09/25 08:01:01;;;;;;;3.75;1.52;;;;;;;;;;5075031;22;20412;-63
2022/09/25 08:03:28;;;;;;;4.80;1.27;;;;;;;;;;5075195;28;20102;-63
2022/09/25 08:06:04;;;;;;;3.90;1.30;;;;;;;;;;5055986;28;20497;-63
2022/09/25 08:08:32;;;;;;;3.53;1.20;;;;;;;;;;5054696;28;20466;-63
2022/09/25 08:11:02;;;;;;;7.45;1.35;;;;;;;;;;5065472;28;20386;-63
2022/09/25 08:13:28;;;;;;;4.30;1.05;;;;;;;;;;5074790;28;20047;-64
2022/09/25 08:15:55;;;;;;;4.85;1.35;;;;;;;;;;5075275;28;20401;-63
2022/09/25 08:18:21;;;;;;;3.97;1.10;;;;;;;;;;5075027;28;20044;-63
2022/09/25 08:20:47;;;;;;;4.05;1.35;;;;;;;;;;5074228;28;20106;-63
2022/09/25 08:23:13;;;;;;;5.28;2.35;;;;;;;;;;5073413;28;20412;-63
2022/09/25 08:25:39;;;;;;;3.72;1.10;;;;;;;;;;5072612;28;20040;-63
2022/09/25 08:28:05;;;;;;;4.47;1.40;;;;;;;;;;5074654;28;20128;-63
2022/09/25 08:30:31;;;;;;;4.15;1.20;;;;;;;;;;5056505;28;20464;-63
2022/09/25 08:32:57;;;;;;;5.57;1.17;;;;;;;;;;5074821;28;20047;-63
2022/09/25 08:35:24;;;;;;;7.50;1.60;;;;;;;;;;5074785;28;20182;-64
2022/09/25 08:37:51;;;;;;;5.13;1.40;;;;;;;;;;5073575;28;20091;-64
2022/09/25 08:40:25;;;;;;;5.43;1.35;;;;;;;;;;5052495;28;20405;-64
2022/09/25 08:42:52;;;;;;;6.90;1.23;;;;;;;;;;5068064;28;20508;-64
2022/09/25 08:51:26;;;;;;;6.90;1.08;;;;;;;;;;5066304;28;20083;-64
2022/09/25 08:53:52;;;;;;;7.28;1.35;;;;;;;;;;5073139;28;20105;-64
2022/09/25 08:56:18;;;;;;;8.40;1.10;;;;;;;;;;5056223;28;20071;-64
2022/09/25 08:59:08;;;;;;;8.93;0.95;;;15.80;99.90;;;;;;5055979;28;20556;-64
2022/09/25 09:01:41;;;;;;;2.35;0.88;;;;;;;;;;5073654;28;20163;-64
2022/09/25 09:04:13;;;;;;;5.53;0.80;;;;;;;;;;5055944;28;20059;-64
2022/09/25 09:06:40;;;;;;;5.90;1.00;;;;;;;;;;5073479;28;20131;-64
2022/09/25 09:09:15;;;;;;;6.20;1.30;;;;;;;;;;5073914;28;20114;-64
2022/09/25 09:11:50;;;;;;;4.60;0.85;;;;;;;;;;5055814;28;20045;-64
2022/09/25 09:14:18;;;;;;;3.90;1.10;;;;;;;;;;5038682;28;20058;-64
2022/09/25 09:16:57;;;;;;;4.93;1.20;;;16.40;99.90;;;;;;5073575;28;20049;-64
2022/09/25 09:19:23;;;;;;;5.68;0.60;;;;;;;;;;5056000;28;20048;-64
2022/09/25 09:22:02;;;;;;;4.72;0.80;;;;;;;;;;5072923;28;20037;-64
2022/09/25 09:24:36;;;;;;;3.67;1.10;;;;;;;;;;5073504;28;20131;-65
2022/09/25 09:27:33;;;;;;;4.93;1.10;;;16.80;99.90;;;;;;5073713;28;20093;-65
2022/09/25 09:30:20;;;;;;;4.97;1.33;;;17.00;99.90;;;;;;5072698;28;20119;-65
2022/09/25 09:32:48;;;;;;;4.88;0.80;;;;;;;;;;5073335;28;20048;-65
2022/09/25 09:35:17;;;;;;;3.78;0.70;;;;;;;;;;5072820;28;20584;-65
2022/09/25 09:38:17;;;;;;;1.67;0.50;;;17.10;99.90;;;;;;5072905;28;20049;-65
2022/09/25 09:41:20;;;;;;;4.60;0.83;;;17.50;99.90;;;;;;5072929;28;20049;-65
2022/09/25 09:44:05;;;;;;;4.32;0.60;;;17.70;99.90;;;;;;5072095;28;20052;-65
2022/09/25 09:46:49;;;;;;;4.68;0.90;;;;;;;;;;5055361;28;20094;-65
2022/09/25 09:49:18;;;;;;;4.75;0.98;;;;;;;;;;5073007;28;20488;-65
2022/09/25 09:51:53;;;;;;;2.72;0.50;;;;;;;;;;5072576;28;20098;-65
2022/09/25 09:54:23;;;;;;;1.38;0.50;;;;;;;;;;5072883;28;20491;-65
2022/09/25 09:56:51;;;;;;;3.72;0.50;;;;;;;;;;5072837;28;20102;-65
2022/09/25 09:59:22;;;;;;;5.07;0.57;;;;;;;;;;5072248;28;20044;-65
2022/09/25 10:02:02;;;;;;;5.40;1.77;;;;;;;;;;5072596;28;20052;-65
2022/09/25 10:04:35;;;;;;;4.80;1.08;;;;;;;;;;5072628;28;20439;-65
2022/09/25 10:07:07;;;;;;;2.83;0.80;;;;;;;;;;5073190;28;20045;-65
2022/09/25 10:09:36;;;;;;;4.88;0.80;;;;;;;;;;5072479;28;20049;-65
2022/09/25 10:12:06;;;;;;;4.13;0.90;;;;;;;;;;5072107;28;20055;-65
2022/09/25 10:14:36;;;;;;;4.43;1.35;;;;;;;;;;5058518;28;20052;-65
2022/09/25 10:17:03;;;;;;;5.07;1.40;;;;;;;;;;5072606;28;20059;-65
2022/09/25 10:19:31;;;;;;;5.03;1.15;;;;;;;;;;5054311;28;20079;-65
2022/09/25 10:22:00;;;;;;;4.55;0.90;;;;;;;;;;5054781;28;20056;-65
2022/09/25 10:25:04;;;;;;;4.20;1.20;;;15.90;99.90;;;;;;5072063;28;20040;-65
2022/09/25 10:27:30;;;;;;;4.00;0.60;;;;;;;;;;5066513;28;20072;-65
2022/09/25 10:30:08;;;;;;;2.22;0.75;;;;;;;;;;5054924;28;20051;-65
2022/09/25 10:32:49;;;;;;;2.35;0.70;;;16.00;99.90;;;;;;5072426;28;20203;-65
2022/09/25 10:35:17;;;;;;;4.05;1.15;;;;;;;;;;5072016;28;21072;-65
2022/09/25 10:37:43;;;;;;;4.88;1.00;;;;;;;;;;5072351;28;20057;-65
2022/09/25 10:40:36;;;;;;;4.47;0.80;;;;;;;;;;5072732;28;20052;-65
2022/09/25 10:43:03;;;;;;;2.85;0.73;;;;;;;;;;5059326;28;20061;-65
2022/09/25 10:45:34;;;;;;;2.97;0.90;;;;;;;;;;5037916;28;20059;-65
2022/09/25 10:50:45;;;;;;;11.05;2.83;;;;;;;;;;5072138;28;20439;-65
2022/09/25 10:53:27;;;;;;;2.95;0.70;;;;;;;;;;5072602;28;20045;-64
2022/09/25 10:55:59;;;;;;;1.42;0.50;;;;;;;;;;5072343;28;20587;-65
2022/09/25 10:58:36;;;;;;;2.40;0.50;;;;;;;;;;5072060;28;20447;-66
2022/09/25 11:01:03;;;;;;;4.32;0.88;;;;;;;;;;5055943;28;20109;-63
2022/09/25 11:03:34;;;;;;;3.58;0.95;;;;;;;;;;5074766;28;20478;-64
2022/09/25 11:06:21;;;;;;;2.25;0.60;;;;;;;;;;5075445;28;20040;-63
2022/09/25 11:08:50;;;;;;;2.75;0.85;;;;;;;;;;5075208;28;20361;-63
2022/09/25 11:11:21;;;;;;;3.83;1.00;;;;;;;;;;5076331;28;20044;-64
2022/09/25 11:13:51;;;;;;;4.85;1.40;;;;;;;;;;5072796;28;20032;-64
2022/09/25 11:16:18;;;;;;;;;;;13.70;99.90;;;;;;5074739;28;20560;-63
2022/09/25 11:19:07;;;;;;;3.75;1.23;;;;;;;;;;5073101;28;19920;-64
2022/09/25 11:21:35;;;;;;;4.38;1.20;;;;;;;;;;5055563;28;20045;-64
2022/09/25 11:24:14;;;;;;;3.28;1.33;;;;;;;;;;5068467;28;20037;-64
2022/09/25 11:26:44;;;;;;;4.53;1.10;;;;;;;;;;5062118;28;20541;-64
2022/09/25 11:29:10;;;;;;;3.40;1.20;;;;;;;;;;5055665;28;20080;-65
2022/09/25 11:31:39;;;;;;;5.03;1.10;;;;;;;;;;5073238;28;20076;-64
2022/09/25 11:34:14;;;;;;;2.90;1.10;;;;;;;;;;5073893;28;20507;-62
2022/09/25 11:36:46;;;;;;;6.18;1.25;;;;;;;;;;5073899;28;20041;-62
2022/09/25 11:42:13;;;;;;;1.27;0.65;;;;;;;;;;5067661;28;20052;-64
2022/09/25 11:44:46;;;;;;;3.90;0.80;;;;;;;;;;5057254;28;20049;-64
2022/09/25 11:47:14;;;;;;;4.07;1.10;;;;;;;;;;5073984;28;20072;-64
2022/09/25 11:49:41;;;;;;;2.50;0.80;;;;;;;;;;5075051;28;20044;-64
2022/09/25 11:52:26;;;;;;;3.53;0.63;;;;;;;;;;5075303;28;20044;-64
2022/09/25 11:55:08;;;;;;;3.97;0.75;;;;;;;;;;5072528;28;20148;-65
2022/09/25 11:57:50;;;;;;;3.22;0.60;;;;;;;;;;5074400;28;20044;-64
2022/09/25 12:00:19;;;;;;;4.85;1.65;;;;;;;;;;5071806;28;20504;-60
2022/09/25 12:02:56;;;;;;;5.30;1.50;;;;;;;;;;5054528;28;20107;-64
2022/09/25 12:05:28;;;;;;;4.20;1.00;;;;;;;;;;5072184;28;20127;-62
2022/09/25 12:08:00;;;;;;;2.10;0.70;;;;;;;;;;5070157;28;20071;-61
2022/09/25 12:10:36;;;;;;;3.70;0.73;;;;;;;;;;5069819;28;20044;-63
2022/09/25 12:13:02;;;;;;;4.53;0.80;;;;;;;;;;5073649;28;20066;-61
2022/09/25 12:15:28;;;;;;;4.30;0.70;;;;;;;;;;5073025;28;20048;-61
2022/09/25 12:17:54;;;;;;;2.67;0.70;;;;;;;;;;5069902;28;20048;-60
2022/09/25 12:20:40;;;;;;;2.00;0.50;;;;;;;;;;5059031;28;20049;-62
2022/09/25 12:23:14;;;;;;;2.10;0.52;;;;;;;;;;5053453;28;20556;-61
2022/09/25 12:25:40;;;;;;;2.75;0.68;;;;;;;;;;5071161;28;20048;-60
2022/09/25 12:28:25;;;;;;;2.75;0.80;;;;;;;;;;5071815;28;20045;-60
2022/09/25 12:31:05;;;;;;;3.72;0.70;;;;;;;;;;5071225;28;20390;-63
2022/09/25 12:33:38;;;;;;;6.30;0.80;;;;;;;;;;5076240;28;20488;-60
2022/09/25 12:36:13;;;;;;;2.03;0.50;;;;;;;;;;5055118;28;20048;-60
2022/09/25 12:38:46;;;;;;;2.03;0.50;;;;;;;;;;5056540;28;20055;-62
2022/09/25 12:41:22;;;;;;;2.33;0.57;;;;;;;;;;5070768;28;20095;-62
2022/09/25 12:44:00;;;;;;;4.25;1.00;;;;;;;;;;5055812;28;20292;-61
2022/09/25 12:46:41;;;;;;;7.00;0.80;;;;;;;;;;5053810;28;20040;-64
2022/09/25 12:49:13;;;;;;;1.25;0.40;;;;;;;;;;5073175;28;20087;-59
2022/09/25 12:51:45;;;;;;;3.63;0.75;;;;;;;;;;5073727;28;20047;-59
2022/09/25 12:54:17;;;;;;;3.75;0.73;;;;;;;;;;5056183;28;20063;-58
2022/09/25 12:56:43;;;;;;;2.58;0.73;;;;;;;;;;5070878;28;20131;-61
2022/09/25 12:59:19;;;;;;;3.40;0.60;;;;;;;;;;5067802;28;20598;-61
2022/09/25 13:01:56;;;;;;;4.28;0.93;;;;;;;;;;5068005;28;20060;-62
2022/09/25 13:04:22;;;;;;;2.65;0.82;;;;;;;;;;5052838;28;20056;-61
2022/09/25 13:06:54;;;;;;;4.22;0.82;;;;;;;;;;5055243;28;20052;-62
2022/09/25 13:09:32;;;;;;;5.72;0.95;;;;;;;;;;5068850;28;20037;-62
2022/09/25 13:12:01;;;;;;;6.45;0.73;;;;;;;;;;5068628;28;20060;-61
2022/09/25 13:14:41;;;;;;;3.38;0.80;;;;;;;;;;5071917;28;20044;-64
2022/09/25 13:17:10;;;;;;;3.55;0.63;;;;;;;;;;5064399;28;20110;-66
2022/09/25 13:19:39;;;;;;;3.60;0.82;;;;;;;;;;5072804;28;20128;-65
2022/09/25 13:22:09;;;;;;;5.82;0.80;;;;;;;;;;5064575;28;20044;-67
2022/09/25 13:24:42;;;;;;;4.25;0.93;;;;;;;;;;5072298;28;20048;-67
2022/09/25 13:27:12;;;;;;;3.40;1.30;;;;;;;;;;5070633;28;20044;-66
2022/09/25 13:29:39;;;;;;;3.60;0.80;;;;;;;;;;5068709;28;20048;-66
2022/09/25 13:32:07;;;;;;;4.82;0.70;;;;;;;;;;5069613;28;20511;-68
2022/09/25 13:34:36;;;;;;;2.20;0.90;;;;;;;;;;5069467;28;20040;-64
2022/09/25 13:37:04;;;;;;;2.70;0.73;;;17.10;99.90;;;;;;5067107;28;20040;-65
2022/09/25 13:42:22;;;;;;;4.20;0.70;;;;;;;;;;5070644;28;20052;-65
2022/09/25 13:44:50;;;;;;;3.30;0.70;;;;;;;;;;5051537;28;20070;-65
2022/09/25 13:47:22;;;;;;;4.22;0.65;;;;;;;;;;5071404;28;20106;-65
2022/09/25 13:49:49;;;;;;;5.50;0.75;;;;;;;;;;5068336;28;20048;-66
2022/09/25 13:55:40;;;;;;;3.28;0.70;;;;;;;;;;5067844;28;20519;-66
2022/09/25 13:58:16;;;;;;;2.15;0.50;;;;;;;;;;5066477;28;20049;-66
2022/09/25 14:00:52;;;;;;;3.30;0.38;;;;;;;;;;5051043;28;20055;-65
2022/09/25 14:03:43;;;;;;;1.70;0.52;;;16.40;99.90;;;;;;5043824;28;20507;-66
2022/09/25 14:06:23;;;;;;;1.90;0.70;;;16.50;99.90;;;;;;5070128;28;20109;-65
2022/09/25 14:08:50;;;;;;;5.25;0.90;;;;;;;;;;5032605;28;20056;-65
2022/09/25 14:11:33;;;;;;;2.55;0.60;;;;;;;;;;5048422;28;20123;-66
2022/09/25 14:14:00;;;;;;;4.38;0.70;;;;;;;;;;5054896;28;20102;-65
2022/09/25 14:16:39;;;;;;;3.22;0.60;;;;;;;;;;5050301;28;20055;-66
2022/09/25 14:19:07;;;;;;;2.47;0.57;;;;;;;;;;5052184;28;20040;-65
2022/09/25 14:21:33;;;;;;;2.95;0.43;;;;;;;;;;5015425;28;20568;-65
2022/09/25 14:24:18;;;;;;;3.22;0.52;;;;;;;;;;5036736;28;20044;-65
2022/09/25 14:26:45;;;;;;;2.30;0.50;;;;;;;;;;5051075;28;20048;-65
2022/09/25 14:29:38;;;;;;;2.55;0.55;;;;;;;;;;5053250;28;20063;-65
2022/09/25 14:32:11;;;;;;;5.03;0.80;;;;;;;;;;5043875;28;20060;-65
2022/09/25 14:34:49;;;;;;;2.80;0.52;;;;;;;;;;5065318;28;20056;-66
2022/09/25 14:37:18;;;;;;;2.08;0.70;;;;;;;;;;5052655;28;20415;-65
2022/09/25 14:39:47;;;;;;;2.38;0.50;;;;;;;;;;5069651;28;20044;-65
2022/09/25 14:42:31;;;;;;;4.80;0.70;;;;;;;;;;5050078;28;20076;-65
2022/09/25 14:45:01;;;;;;;4.70;0.70;;;;;;;;;;5069070;28;20048;-65
2022/09/25 14:47:32;;;;;;;3.33;0.60;;;;;;;;;;5053375;28;20045;-65
2022/09/25 14:49:59;;;;;;;1.73;0.70;;;;;;;;;;5056769;28;20064;-65
2022/09/25 14:52:27;;;;;;;1.30;0.60;;;;;;;;;;5058164;28;20484;-65
2022/09/25 14:54:55;;;;;;;3.65;0.63;;;;;;;;;;5069494;28;20051;-65
2022/09/25 14:57:34;;;;;;;4.45;1.02;;;;;;;;;;5116962;22;20057;-66
2022/09/25 15:03:02;;;;;;;2.53;0.70;;;;;;;;;;4984230;22;20060;-65
2022/09/25 15:05:30;;;;;;;5.05;1.05;;;;;;;;;;5050854;28;20063;-66
2022/09/25 15:07:58;;;;;;;6.25;1.00;;;;;;;;;;5070853;28;20519;-66
2022/09/25 15:10:24;;;;;;;2.42;0.85;;;;;;;;;;5065495;28;20059;-65
2022/09/25 15:12:50;;;;;;;4.78;0.88;;;;;;;;;;5069957;28;20178;-66
2022/09/25 15:15:17;;;;;;;4.85;1.10;;;;;;;;;;5071792;28;20040;-65
2022/09/25 15:17:58;;;;;;;4.03;0.80;;;;;;;;;;5061592;22;20068;-65
2022/09/25 15:20:26;;;;;;;4.25;1.80;;;;;;;;;;5063637;22;20060;-65
2022/09/25 15:22:56;;;;;;;5.55;1.50;;;;;;;;;;5030096;28;20049;-66
2022/09/25 15:25:24;;;;;;;5.65;1.65;;;;;;;;;;5038740;28;20088;-65
2022/09/25 15:27:50;;;;;;;3.90;1.60;;;;;;;;;;5048775;28;20094;-65
2022/09/25 15:30:16;;;;;;;6.38;1.00;;;;;;;;;;5031956;28;20126;-66
2022/09/25 15:32:43;;;;;;;2.95;0.93;;;;;;;;;;5048068;28;20068;-66